sensor_id;sensor_type;location;lat;lon;timestamp;P1;durP1;ratioP1;P2;durP2;ratioP2
53977;SDS011;39886;47.984;-1.586;2023-02-28T00:00:09;2.38;;;0.90;;
53977;SDS011;39886;47.984;-1.586;2023-02-28T00:02:40;1.00;;;1.00;;
53977;SDS011;39886;47.984;-1.586;2023-02-28T00:05:07;1.10;;;1.00;;
53977;SDS011;39886;47.984;-1.586;2023-02-28T00:07:34;1.17;;;1.05;;
53977;SDS011;39886;47.984;-1.586;2023-02-28T00:10:01;1.20;;;1.10;;
53977;SDS011;39886;47.984;-1.586;2023-02-28T00:12:27;1.13;;;0.95;;
53977;SDS011;39886;47.984;-1.586;2023-02-28T00:14:52;1.00;;;0.90;;
53977;SDS011;39886;47.984;-1.586;2023-02-28T00:17:18;1.05;;;0.98;;
53977;SDS011;39886;47.984;-1.586;2023-02-28T00:19:49;1.35;;;1.20;;
53977;SDS011;39886;47.984;-1.586;2023-02-28T00:22:19;1.00;;;1.00;;
53977;SDS011;39886;47.984;-1.586;2023-02-28T00:24:46;1.30;;;1.02;;
53977;SDS011;39886;47.984;-1.586;2023-02-28T00:27:12;1.10;;;1.00;;
53977;SDS011;39886;47.984;-1.586;2023-02-28T00:29:39;0.80;;;0.80;;
53977;SDS011;39886;47.984;-1.586;2023-02-28T00:32:05;2.38;;;1.45;;
53977;SDS011;39886;47.984;-1.586;2023-02-28T00:34:31;1.13;;;1.02;;
53977;SDS011;39886;47.984;-1.586;2023-02-28T00:37:02;1.10;;;1.00;;
53977;SDS011;39886;47.984;-1.586;2023-02-28T00:39:29;1.25;;;1.00;;
53977;SDS011;39886;47.984;-1.586;2023-02-28T00:41:55;1.30;;;0.95;;
53977;SDS011;39886;47.984;-1.586;2023-02-28T00:44:21;1.10;;;1.00;;
53977;SDS011;39886;47.984;-1.586;2023-02-28T00:46:46;0.70;;;0.70;;
53977;SDS011;39886;47.984;-1.586;2023-02-28T00:49:12;1.10;;;0.90;;
53977;SDS011;39886;47.984;-1.586;2023-02-28T00:51:38;1.30;;;0.90;;
53977;SDS011;39886;47.984;-1.586;2023-02-28T00:54:04;1.45;;;1.00;;
53977;SDS011;39886;47.984;-1.586;2023-02-28T00:56:29;1.52;;;1.00;;
53977;SDS011;39886;47.984;-1.586;2023-02-28T00:58:55;1.73;;;1.02;;
53977;SDS011;39886;47.984;-1.586;2023-02-28T01:01:21;1.00;;;0.80;;
53977;SDS011;39886;47.984;-1.586;2023-02-28T01:03:47;1.88;;;1.00;;
53977;SDS011;39886;47.984;-1.586;2023-02-28T01:06:12;0.73;;;0.73;;
53977;SDS011;39886;47.984;-1.586;2023-02-28T01:08:38;2.08;;;1.00;;
53977;SDS011;39886;47.984;-1.586;2023-02-28T01:11:11;1.63;;;1.05;;
53977;SDS011;39886;47.984;-1.586;2023-02-28T01:13:37;1.60;;;1.10;;
53977;SDS011;39886;47.984;-1.586;2023-02-28T01:16:03;1.13;;;1.02;;
53977;SDS011;39886;47.984;-1.586;2023-02-28T01:18:29;1.38;;;1.10;;
53977;SDS011;39886;47.984;-1.586;2023-02-28T01:20:56;1.33;;;0.88;;
53977;SDS011;39886;47.984;-1.586;2023-02-28T01:23:22;1.27;;;1.10;;
53977;SDS011;39886;47.984;-1.586;2023-02-28T01:25:49;1.00;;;1.00;;
53977;SDS011;39886;47.984;-1.586;2023-02-28T01:28:15;0.93;;;0.93;;
53977;SDS011;39886;47.984;-1.586;2023-02-28T01:30:41;1.10;;;1.00;;
53977;SDS011;39886;47.984;-1.586;2023-02-28T01:33:07;1.15;;;1.00;;
53977;SDS011;39886;47.984;-1.586;2023-02-28T01:35:33;1.13;;;1.00;;
53977;SDS011;39886;47.984;-1.586;2023-02-28T01:38:00;1.92;;;1.00;;
53977;SDS011;39886;47.984;-1.586;2023-02-28T01:40:26;1.02;;;0.93;;
53977;SDS011;39886;47.984;-1.586;2023-02-28T01:42:52;1.05;;;0.98;;
53977;SDS011;39886;47.984;-1.586;2023-02-28T01:45:27;1.48;;;0.90;;
53977;SDS011;39886;47.984;-1.586;2023-02-28T01:47:58;1.02;;;0.90;;
53977;SDS011;39886;47.984;-1.586;2023-02-28T01:50:31;1.02;;;0.93;;
53977;SDS011;39886;47.984;-1.586;2023-02-28T01:53:02;1.17;;;1.00;;
53977;SDS011;39886;47.984;-1.586;2023-02-28T01:55:31;0.93;;;0.93;;
53977;SDS011;39886;47.984;-1.586;2023-02-28T01:57:59;0.82;;;0.82;;
53977;SDS011;39886;47.984;-1.586;2023-02-28T02:00:27;1.13;;;1.02;;
53977;SDS011;39886;47.984;-1.586;2023-02-28T02:03:05;1.55;;;1.25;;
53977;SDS011;39886;47.984;-1.586;2023-02-28T02:05:34;1.15;;;1.05;;
53977;SDS011;39886;47.984;-1.586;2023-02-28T02:08:06;1.20;;;1.10;;
53977;SDS011;39886;47.984;-1.586;2023-02-28T02:10:36;1.73;;;1.10;;
53977;SDS011;39886;47.984;-1.586;2023-02-28T02:18:48;1.02;;;0.90;;
53977;SDS011;39886;47.984;-1.586;2023-02-28T02:29:35;1.20;;;1.08;;
53977;SDS011;39886;47.984;-1.586;2023-02-28T02:35:37;1.02;;;0.93;;
53977;SDS011;39886;47.984;-1.586;2023-02-28T02:40:34;1.10;;;1.00;;
53977;SDS011;39886;47.984;-1.586;2023-02-28T02:43:08;1.05;;;0.95;;
53977;SDS011;39886;47.984;-1.586;2023-02-28T02:45:58;1.52;;;1.10;;
53977;SDS011;39886;47.984;-1.586;2023-02-28T02:48:30;1.02;;;0.85;;
53977;SDS011;39886;47.984;-1.586;2023-02-28T02:51:00;1.35;;;1.00;;
53977;SDS011;39886;47.984;-1.586;2023-02-28T02:53:30;0.80;;;0.80;;
53977;SDS011;39886;47.984;-1.586;2023-02-28T02:56:00;0.90;;;0.80;;
53977;SDS011;39886;47.984;-1.586;2023-02-28T02:58:29;1.17;;;1.08;;
53977;SDS011;39886;47.984;-1.586;2023-02-28T03:01:00;1.17;;;0.85;;
53977;SDS011;39886;47.984;-1.586;2023-02-28T03:03:28;1.50;;;0.93;;
53977;SDS011;39886;47.984;-1.586;2023-02-28T03:05:59;1.13;;;1.00;;
53977;SDS011;39886;47.984;-1.586;2023-02-28T03:08:26;0.98;;;0.93;;
53977;SDS011;39886;47.984;-1.586;2023-02-28T03:10:57;1.27;;;1.02;;
53977;SDS011;39886;47.984;-1.586;2023-02-28T03:19:06;0.80;;;0.80;;
53977;SDS011;39886;47.984;-1.586;2023-02-28T03:22:40;1.20;;;0.98;;
53977;SDS011;39886;47.984;-1.586;2023-02-28T03:27:26;2.35;;;1.25;;
53977;SDS011;39886;47.984;-1.586;2023-02-28T03:29:58;0.82;;;0.82;;
53977;SDS011;39886;47.984;-1.586;2023-02-28T03:32:34;0.85;;;0.85;;
53977;SDS011;39886;47.984;-1.586;2023-02-28T03:35:34;1.07;;;1.07;;
53977;SDS011;39886;47.984;-1.586;2023-02-28T03:40:58;1.77;;;0.82;;
53977;SDS011;39886;47.984;-1.586;2023-02-28T03:43:32;0.95;;;0.90;;
53977;SDS011;39886;47.984;-1.586;2023-02-28T03:46:01;0.90;;;0.90;;
53977;SDS011;39886;47.984;-1.586;2023-02-28T03:48:43;1.47;;;1.10;;
53977;SDS011;39886;47.984;-1.586;2023-02-28T03:51:15;2.05;;;1.00;;
53977;SDS011;39886;47.984;-1.586;2023-02-28T03:53:45;1.13;;;1.00;;
53977;SDS011;39886;47.984;-1.586;2023-02-28T03:56:20;1.00;;;1.00;;
53977;SDS011;39886;47.984;-1.586;2023-02-28T03:59:02;2.15;;;1.00;;
53977;SDS011;39886;47.984;-1.586;2023-02-28T04:01:39;0.80;;;0.80;;
53977;SDS011;39886;47.984;-1.586;2023-02-28T04:04:10;1.45;;;1.15;;
53977;SDS011;39886;47.984;-1.586;2023-02-28T04:06:37;1.42;;;1.05;;
53977;SDS011;39886;47.984;-1.586;2023-02-28T04:09:05;1.48;;;1.00;;
53977;SDS011;39886;47.984;-1.586;2023-02-28T04:11:32;1.13;;;1.00;;
53977;SDS011;39886;47.984;-1.586;2023-02-28T04:16:31;0.80;;;0.80;;
53977;SDS011;39886;47.984;-1.586;2023-02-28T04:18:58;1.20;;;0.85;;
53977;SDS011;39886;47.984;-1.586;2023-02-28T04:21:34;1.48;;;1.00;;
53977;SDS011;39886;47.984;-1.586;2023-02-28T04:24:04;0.85;;;0.85;;
53977;SDS011;39886;47.984;-1.586;2023-02-28T04:26:31;0.93;;;0.93;;
53977;SDS011;39886;47.984;-1.586;2023-02-28T04:28:59;1.08;;;0.82;;
53977;SDS011;39886;47.984;-1.586;2023-02-28T04:31:27;1.15;;;1.00;;
53977;SDS011;39886;47.984;-1.586;2023-02-28T04:33:53;1.10;;;1.00;;
53977;SDS011;39886;47.984;-1.586;2023-02-28T04:36:19;1.08;;;0.98;;
53977;SDS011;39886;47.984;-1.586;2023-02-28T04:38:45;1.45;;;1.10;;
53977;SDS011;39886;47.984;-1.586;2023-02-28T04:41:11;1.13;;;1.00;;
53977;SDS011;39886;47.984;-1.586;2023-02-28T04:43:37;1.33;;;0.95;;
53977;SDS011;39886;47.984;-1.586;2023-02-28T04:46:04;2.10;;;1.05;;
53977;SDS011;39886;47.984;-1.586;2023-02-28T04:48:32;0.93;;;0.93;;
53977;SDS011;39886;47.984;-1.586;2023-02-28T04:51:00;1.60;;;0.93;;
53977;SDS011;39886;47.984;-1.586;2023-02-28T04:53:37;0.88;;;0.80;;
53977;SDS011;39886;47.984;-1.586;2023-02-28T04:56:04;1.13;;;1.02;;
53977;SDS011;39886;47.984;-1.586;2023-02-28T04:58:31;0.98;;;0.90;;
53977;SDS011;39886;47.984;-1.586;2023-02-28T05:01:17;0.93;;;0.93;;
53977;SDS011;39886;47.984;-1.586;2023-02-28T05:03:46;0.93;;;0.82;;
53977;SDS011;39886;47.984;-1.586;2023-02-28T05:06:12;0.82;;;0.82;;
53977;SDS011;39886;47.984;-1.586;2023-02-28T05:08:39;1.00;;;1.00;;
53977;SDS011;39886;47.984;-1.586;2023-02-28T05:11:16;0.90;;;0.90;;
53977;SDS011;39886;47.984;-1.586;2023-02-28T05:13:54;1.30;;;0.82;;
53977;SDS011;39886;47.984;-1.586;2023-02-28T05:16:20;0.90;;;0.80;;
53977;SDS011;39886;47.984;-1.586;2023-02-28T05:18:46;1.40;;;0.95;;
53977;SDS011;39886;47.984;-1.586;2023-02-28T05:21:23;0.80;;;0.80;;
53977;SDS011;39886;47.984;-1.586;2023-02-28T05:23:49;1.10;;;1.00;;
53977;SDS011;39886;47.984;-1.586;2023-02-28T05:26:15;2.30;;;0.98;;
53977;SDS011;39886;47.984;-1.586;2023-02-28T05:28:41;0.82;;;0.82;;
53977;SDS011;39886;47.984;-1.586;2023-02-28T05:31:07;0.80;;;0.80;;
53977;SDS011;39886;47.984;-1.586;2023-02-28T05:33:35;1.15;;;0.88;;
53977;SDS011;39886;47.984;-1.586;2023-02-28T05:36:01;1.45;;;0.95;;
53977;SDS011;39886;47.984;-1.586;2023-02-28T05:38:28;0.93;;;0.80;;
53977;SDS011;39886;47.984;-1.586;2023-02-28T05:40:53;1.30;;;1.10;;
53977;SDS011;39886;47.984;-1.586;2023-02-28T05:43:19;1.13;;;1.00;;
53977;SDS011;39886;47.984;-1.586;2023-02-28T05:45:45;1.00;;;1.00;;
53977;SDS011;39886;47.984;-1.586;2023-02-28T05:48:11;1.20;;;0.90;;
53977;SDS011;39886;47.984;-1.586;2023-02-28T05:50:37;1.02;;;0.90;;
53977;SDS011;39886;47.984;-1.586;2023-02-28T05:53:03;1.33;;;1.00;;
53977;SDS011;39886;47.984;-1.586;2023-02-28T05:55:28;1.95;;;1.10;;
53977;SDS011;39886;47.984;-1.586;2023-02-28T05:57:54;1.30;;;1.02;;
53977;SDS011;39886;47.984;-1.586;2023-02-28T06:00:21;0.88;;;0.80;;
53977;SDS011;39886;47.984;-1.586;2023-02-28T06:02:47;1.77;;;1.10;;
53977;SDS011;39886;47.984;-1.586;2023-02-28T06:05:15;0.95;;;0.80;;
53977;SDS011;39886;47.984;-1.586;2023-02-28T06:07:42;0.85;;;0.82;;
53977;SDS011;39886;47.984;-1.586;2023-02-28T06:10:09;1.15;;;1.05;;
53977;SDS011;39886;47.984;-1.586;2023-02-28T06:12:36;0.75;;;0.75;;
53977;SDS011;39886;47.984;-1.586;2023-02-28T06:15:02;1.10;;;1.00;;
53977;SDS011;39886;47.984;-1.586;2023-02-28T06:17:28;1.00;;;0.98;;
53977;SDS011;39886;47.984;-1.586;2023-02-28T06:19:54;0.98;;;0.95;;
53977;SDS011;39886;47.984;-1.586;2023-02-28T06:22:19;1.08;;;1.00;;
53977;SDS011;39886;47.984;-1.586;2023-02-28T06:24:45;1.40;;;0.95;;
53977;SDS011;39886;47.984;-1.586;2023-02-28T06:27:11;1.10;;;1.00;;
53977;SDS011;39886;47.984;-1.586;2023-02-28T06:29:37;1.10;;;1.00;;
53977;SDS011;39886;47.984;-1.586;2023-02-28T06:32:04;0.80;;;0.80;;
53977;SDS011;39886;47.984;-1.586;2023-02-28T06:34:30;0.93;;;0.90;;
53977;SDS011;39886;47.984;-1.586;2023-02-28T06:36:56;1.17;;;0.90;;
53977;SDS011;39886;47.984;-1.586;2023-02-28T06:39:27;0.90;;;0.90;;
53977;SDS011;39886;47.984;-1.586;2023-02-28T06:41:54;0.93;;;0.93;;
53977;SDS011;39886;47.984;-1.586;2023-02-28T06:44:20;0.90;;;0.90;;
53977;SDS011;39886;47.984;-1.586;2023-02-28T06:46:47;0.73;;;0.73;;
53977;SDS011;39886;47.984;-1.586;2023-02-28T06:49:13;1.08;;;0.90;;
53977;SDS011;39886;47.984;-1.586;2023-02-28T06:51:42;1.05;;;1.00;;
53977;SDS011;39886;47.984;-1.586;2023-02-28T06:54:12;1.10;;;0.95;;
53977;SDS011;39886;47.984;-1.586;2023-02-28T06:56:38;1.02;;;0.93;;
53977;SDS011;39886;47.984;-1.586;2023-02-28T06:59:04;1.48;;;1.30;;
53977;SDS011;39886;47.984;-1.586;2023-02-28T07:01:31;0.95;;;0.93;;
53977;SDS011;39886;47.984;-1.586;2023-02-28T07:03:58;1.58;;;1.00;;
53977;SDS011;39886;47.984;-1.586;2023-02-28T07:06:25;1.63;;;1.10;;
53977;SDS011;39886;47.984;-1.586;2023-02-28T07:08:51;0.90;;;0.90;;
53977;SDS011;39886;47.984;-1.586;2023-02-28T07:11:18;2.47;;;1.00;;
53977;SDS011;39886;47.984;-1.586;2023-02-28T07:13:44;0.80;;;0.80;;
53977;SDS011;39886;47.984;-1.586;2023-02-28T07:16:12;1.17;;;0.90;;
53977;SDS011;39886;47.984;-1.586;2023-02-28T07:18:39;0.90;;;0.90;;
53977;SDS011;39886;47.984;-1.586;2023-02-28T07:21:05;1.10;;;1.00;;
53977;SDS011;39886;47.984;-1.586;2023-02-28T07:23:32;1.10;;;1.00;;
53977;SDS011;39886;47.984;-1.586;2023-02-28T07:25:58;1.13;;;1.02;;
53977;SDS011;39886;47.984;-1.586;2023-02-28T07:28:24;1.27;;;1.00;;
53977;SDS011;39886;47.984;-1.586;2023-02-28T07:30:50;0.98;;;0.90;;
53977;SDS011;39886;47.984;-1.586;2023-02-28T07:33:16;2.88;;;1.20;;
53977;SDS011;39886;47.984;-1.586;2023-02-28T07:35:42;1.10;;;1.00;;
53977;SDS011;39886;47.984;-1.586;2023-02-28T07:38:08;1.65;;;1.08;;
53977;SDS011;39886;47.984;-1.586;2023-02-28T07:40:34;1.52;;;1.13;;
53977;SDS011;39886;47.984;-1.586;2023-02-28T07:43:01;1.38;;;1.05;;
53977;SDS011;39886;47.984;-1.586;2023-02-28T07:45:28;3.47;;;1.27;;
53977;SDS011;39886;47.984;-1.586;2023-02-28T07:47:54;0.70;;;0.70;;
53977;SDS011;39886;47.984;-1.586;2023-02-28T07:50:21;1.20;;;0.93;;
53977;SDS011;39886;47.984;-1.586;2023-02-28T07:52:47;1.98;;;0.90;;
53977;SDS011;39886;47.984;-1.586;2023-02-28T07:55:13;1.65;;;1.10;;
53977;SDS011;39886;47.984;-1.586;2023-02-28T07:57:39;1.17;;;1.08;;
53977;SDS011;39886;47.984;-1.586;2023-02-28T08:00:06;3.70;;;1.10;;
53977;SDS011;39886;47.984;-1.586;2023-02-28T08:02:34;2.38;;;1.00;;
53977;SDS011;39886;47.984;-1.586;2023-02-28T08:05:01;1.98;;;1.08;;
53977;SDS011;39886;47.984;-1.586;2023-02-28T08:07:27;2.53;;;1.05;;
53977;SDS011;39886;47.984;-1.586;2023-02-28T08:09:52;1.25;;;1.08;;
53977;SDS011;39886;47.984;-1.586;2023-02-28T08:12:18;1.65;;;1.27;;
53977;SDS011;39886;47.984;-1.586;2023-02-28T08:14:44;1.52;;;0.90;;
53977;SDS011;39886;47.984;-1.586;2023-02-28T08:17:10;2.35;;;1.00;;
53977;SDS011;39886;47.984;-1.586;2023-02-28T08:19:37;2.38;;;1.08;;
53977;SDS011;39886;47.984;-1.586;2023-02-28T08:22:03;2.20;;;1.30;;
53977;SDS011;39886;47.984;-1.586;2023-02-28T08:24:29;1.50;;;1.25;;
53977;SDS011;39886;47.984;-1.586;2023-02-28T08:26:55;4.40;;;1.60;;
53977;SDS011;39886;47.984;-1.586;2023-02-28T08:29:21;3.40;;;1.17;;
53977;SDS011;39886;47.984;-1.586;2023-02-28T08:31:47;2.33;;;1.00;;
53977;SDS011;39886;47.984;-1.586;2023-02-28T08:34:14;1.77;;;1.15;;
53977;SDS011;39886;47.984;-1.586;2023-02-28T08:36:41;4.03;;;1.30;;
53977;SDS011;39886;47.984;-1.586;2023-02-28T08:39:09;3.22;;;1.77;;
53977;SDS011;39886;47.984;-1.586;2023-02-28T08:41:35;2.17;;;1.10;;
53977;SDS011;39886;47.984;-1.586;2023-02-28T08:44:01;1.38;;;0.95;;
53977;SDS011;39886;47.984;-1.586;2023-02-28T08:46:27;1.90;;;1.00;;
53977;SDS011;39886;47.984;-1.586;2023-02-28T08:48:54;2.20;;;1.15;;
53977;SDS011;39886;47.984;-1.586;2023-02-28T08:51:21;2.30;;;1.38;;
53977;SDS011;39886;47.984;-1.586;2023-02-28T08:53:52;3.35;;;1.48;;
53977;SDS011;39886;47.984;-1.586;2023-02-28T08:56:19;4.80;;;1.48;;
53977;SDS011;39886;47.984;-1.586;2023-02-28T08:58:45;1.58;;;1.10;;
53977;SDS011;39886;47.984;-1.586;2023-02-28T09:01:16;1.50;;;1.17;;
53977;SDS011;39886;47.984;-1.586;2023-02-28T09:03:47;2.15;;;1.30;;
53977;SDS011;39886;47.984;-1.586;2023-02-28T09:06:14;3.08;;;1.30;;
53977;SDS011;39886;47.984;-1.586;2023-02-28T09:08:41;1.00;;;1.00;;
53977;SDS011;39886;47.984;-1.586;2023-02-28T09:11:07;1.65;;;1.15;;
53977;SDS011;39886;47.984;-1.586;2023-02-28T09:13:34;2.28;;;1.15;;
53977;SDS011;39886;47.984;-1.586;2023-02-28T09:16:01;2.63;;;1.15;;
53977;SDS011;39886;47.984;-1.586;2023-02-28T09:18:29;3.75;;;1.25;;
53977;SDS011;39886;47.984;-1.586;2023-02-28T09:20:55;5.20;;;1.20;;
53977;SDS011;39886;47.984;-1.586;2023-02-28T09:23:21;2.25;;;1.20;;
53977;SDS011;39886;47.984;-1.586;2023-02-28T09:25:48;1.90;;;1.13;;
53977;SDS011;39886;47.984;-1.586;2023-02-28T09:28:15;3.90;;;1.20;;
53977;SDS011;39886;47.984;-1.586;2023-02-28T09:30:42;1.98;;;1.27;;
53977;SDS011;39886;47.984;-1.586;2023-02-28T09:33:10;1.88;;;1.10;;
53977;SDS011;39886;47.984;-1.586;2023-02-28T09:35:36;3.67;;;1.15;;
53977;SDS011;39886;47.984;-1.586;2023-02-28T09:38:02;5.40;;;1.23;;
53977;SDS011;39886;47.984;-1.586;2023-02-28T09:40:29;1.67;;;1.05;;
53977;SDS011;39886;47.984;-1.586;2023-02-28T09:42:56;3.72;;;1.13;;
53977;SDS011;39886;47.984;-1.586;2023-02-28T09:47:56;2.20;;;1.25;;
53977;SDS011;39886;47.984;-1.586;2023-02-28T09:52:58;3.75;;;1.23;;
53977;SDS011;39886;47.984;-1.586;2023-02-28T10:01:03;2.33;;;1.20;;
53977;SDS011;39886;47.984;-1.586;2023-02-28T10:04:03;2.55;;;1.13;;
53977;SDS011;39886;47.984;-1.586;2023-02-28T10:06:59;2.28;;;1.17;;
53977;SDS011;39886;47.984;-1.586;2023-02-28T10:09:31;2.13;;;1.10;;
53977;SDS011;39886;47.984;-1.586;2023-02-28T10:12:02;3.80;;;1.10;;
53977;SDS011;39886;47.984;-1.586;2023-02-28T10:14:30;3.10;;;1.05;;
53977;SDS011;39886;47.984;-1.586;2023-02-28T10:17:12;1.83;;;1.15;;
53977;SDS011;39886;47.984;-1.586;2023-02-28T10:22:48;5.93;;;1.65;;
53977;SDS011;39886;47.984;-1.586;2023-02-28T10:25:20;2.47;;;1.30;;
53977;SDS011;39886;47.984;-1.586;2023-02-28T10:27:47;2.20;;;1.33;;
53977;SDS011;39886;47.984;-1.586;2023-02-28T10:30:14;3.15;;;1.75;;
53977;SDS011;39886;47.984;-1.586;2023-02-28T10:32:40;2.65;;;1.27;;
53977;SDS011;39886;47.984;-1.586;2023-02-28T10:35:24;3.38;;;1.50;;
53977;SDS011;39886;47.984;-1.586;2023-02-28T10:37:57;2.42;;;1.42;;
53977;SDS011;39886;47.984;-1.586;2023-02-28T10:40:34;3.67;;;1.40;;
53977;SDS011;39886;47.984;-1.586;2023-02-28T10:45:38;7.70;;;1.85;;
53977;SDS011;39886;47.984;-1.586;2023-02-28T10:50:44;4.07;;;1.50;;
53977;SDS011;39886;47.984;-1.586;2023-02-28T10:55:58;11.60;;;1.70;;
53977;SDS011;39886;47.984;-1.586;2023-02-28T10:58:47;4.25;;;1.70;;
53977;SDS011;39886;47.984;-1.586;2023-02-28T11:01:15;4.25;;;1.60;;
53977;SDS011;39886;47.984;-1.586;2023-02-28T11:03:43;4.45;;;1.40;;
53977;SDS011;39886;47.984;-1.586;2023-02-28T11:06:16;2.92;;;1.58;;
53977;SDS011;39886;47.984;-1.586;2023-02-28T11:08:48;4.72;;;1.50;;
53977;SDS011;39886;47.984;-1.586;2023-02-28T11:11:16;10.05;;;1.85;;
53977;SDS011;39886;47.984;-1.586;2023-02-28T11:13:43;5.20;;;1.40;;
53977;SDS011;39886;47.984;-1.586;2023-02-28T11:16:11;3.83;;;1.40;;
53977;SDS011;39886;47.984;-1.586;2023-02-28T11:21:19;2.97;;;1.23;;
53977;SDS011;39886;47.984;-1.586;2023-02-28T11:23:56;2.78;;;1.33;;
53977;SDS011;39886;47.984;-1.586;2023-02-28T11:34:27;4.00;;;1.10;;
53977;SDS011;39886;47.984;-1.586;2023-02-28T11:36:54;1.95;;;1.17;;
53977;SDS011;39886;47.984;-1.586;2023-02-28T11:39:22;4.03;;;1.67;;
53977;SDS011;39886;47.984;-1.586;2023-02-28T11:50:00;2.00;;;1.40;;
53977;SDS011;39886;47.984;-1.586;2023-02-28T11:52:53;4.75;;;1.90;;
53977;SDS011;39886;47.984;-1.586;2023-02-28T11:55:24;3.20;;;1.30;;
53977;SDS011;39886;47.984;-1.586;2023-02-28T12:00:39;2.03;;;0.98;;
53977;SDS011;39886;47.984;-1.586;2023-02-28T12:06:23;1.70;;;1.30;;
53977;SDS011;39886;47.984;-1.586;2023-02-28T12:28:14;1.95;;;1.13;;
53977;SDS011;39886;47.984;-1.586;2023-02-28T12:30:47;2.15;;;1.17;;
53977;SDS011;39886;47.984;-1.586;2023-02-28T12:33:22;3.22;;;1.63;;
53977;SDS011;39886;47.984;-1.586;2023-02-28T12:35:58;2.85;;;1.30;;
53977;SDS011;39886;47.984;-1.586;2023-02-28T12:38:27;1.70;;;1.15;;
53977;SDS011;39886;47.984;-1.586;2023-02-28T12:41:19;2.67;;;1.48;;
53977;SDS011;39886;47.984;-1.586;2023-02-28T12:43:55;2.65;;;1.40;;
53977;SDS011;39886;47.984;-1.586;2023-02-28T12:46:49;1.63;;;1.20;;
53977;SDS011;39886;47.984;-1.586;2023-02-28T12:49:21;4.20;;;1.20;;
53977;SDS011;39886;47.984;-1.586;2023-02-28T12:52:10;1.65;;;1.02;;
53977;SDS011;39886;47.984;-1.586;2023-02-28T13:00:19;2.40;;;1.40;;
53977;SDS011;39886;47.984;-1.586;2023-02-28T13:03:10;1.92;;;1.17;;
53977;SDS011;39886;47.984;-1.586;2023-02-28T13:06:05;2.95;;;1.10;;
53977;SDS011;39886;47.984;-1.586;2023-02-28T13:11:38;2.38;;;1.40;;
53977;SDS011;39886;47.984;-1.586;2023-02-28T13:14:20;2.35;;;1.38;;
53977;SDS011;39886;47.984;-1.586;2023-02-28T13:16:55;2.75;;;1.10;;
53977;SDS011;39886;47.984;-1.586;2023-02-28T13:19:44;1.58;;;0.98;;
53977;SDS011;39886;47.984;-1.586;2023-02-28T13:24:53;4.13;;;1.45;;
53977;SDS011;39886;47.984;-1.586;2023-02-28T13:35:48;2.33;;;1.30;;
53977;SDS011;39886;47.984;-1.586;2023-02-28T13:38:32;2.03;;;1.08;;
53977;SDS011;39886;47.984;-1.586;2023-02-28T13:44:03;1.30;;;1.00;;
53977;SDS011;39886;47.984;-1.586;2023-02-28T13:46:32;2.08;;;0.98;;
53977;SDS011;39886;47.984;-1.586;2023-02-28T13:51:52;5.10;;;0.93;;
53977;SDS011;39886;47.984;-1.586;2023-02-28T14:02:34;2.65;;;1.13;;
53977;SDS011;39886;47.984;-1.586;2023-02-28T14:05:13;5.97;;;1.48;;
53977;SDS011;39886;47.984;-1.586;2023-02-28T14:07:50;3.97;;;1.25;;
53977;SDS011;39886;47.984;-1.586;2023-02-28T14:10:30;4.25;;;1.30;;
53977;SDS011;39886;47.984;-1.586;2023-02-28T14:13:11;4.97;;;1.20;;
53977;SDS011;39886;47.984;-1.586;2023-02-28T14:15:56;3.35;;;1.20;;
53977;SDS011;39886;47.984;-1.586;2023-02-28T14:18:34;1.85;;;1.00;;
53977;SDS011;39886;47.984;-1.586;2023-02-28T14:26:29;3.97;;;1.02;;
53977;SDS011;39886;47.984;-1.586;2023-02-28T14:35:05;5.43;;;1.10;;
53977;SDS011;39886;47.984;-1.586;2023-02-28T14:37:39;2.33;;;1.08;;
53977;SDS011;39886;47.984;-1.586;2023-02-28T14:43:01;2.85;;;1.23;;
53977;SDS011;39886;47.984;-1.586;2023-02-28T14:45:30;2.03;;;1.48;;
53977;SDS011;39886;47.984;-1.586;2023-02-28T14:47:58;2.92;;;1.30;;
53977;SDS011;39886;47.984;-1.586;2023-02-28T14:51:08;18.20;;;1.65;;
53977;SDS011;39886;47.984;-1.586;2023-02-28T14:53:18;4.40;;;1.30;;
53977;SDS011;39886;47.984;-1.586;2023-02-28T14:55:46;1.80;;;0.98;;
53977;SDS011;39886;47.984;-1.586;2023-02-28T14:58:23;3.63;;;1.20;;
53977;SDS011;39886;47.984;-1.586;2023-02-28T15:00:51;3.85;;;1.23;;
53977;SDS011;39886;47.984;-1.586;2023-02-28T15:03:24;3.20;;;1.10;;
53977;SDS011;39886;47.984;-1.586;2023-02-28T15:06:04;2.42;;;1.23;;
53977;SDS011;39886;47.984;-1.586;2023-02-28T15:08:31;3.00;;;1.08;;
53977;SDS011;39886;47.984;-1.586;2023-02-28T15:11:02;5.28;;;1.35;;
53977;SDS011;39886;47.984;-1.586;2023-02-28T15:13:48;3.47;;;1.25;;
53977;SDS011;39886;47.984;-1.586;2023-02-28T15:16:25;2.75;;;1.00;;
53977;SDS011;39886;47.984;-1.586;2023-02-28T15:21:28;1.42;;;0.93;;
53977;SDS011;39886;47.984;-1.586;2023-02-28T15:23:58;7.93;;;1.23;;
53977;SDS011;39886;47.984;-1.586;2023-02-28T15:26:41;2.25;;;0.90;;
53977;SDS011;39886;47.984;-1.586;2023-02-28T15:29:19;2.10;;;1.02;;
53977;SDS011;39886;47.984;-1.586;2023-02-28T15:31:48;1.30;;;1.10;;
53977;SDS011;39886;47.984;-1.586;2023-02-28T15:34:20;3.75;;;1.25;;
53977;SDS011;39886;47.984;-1.586;2023-02-28T15:36:47;2.03;;;1.13;;
53977;SDS011;39886;47.984;-1.586;2023-02-28T15:39:21;2.33;;;1.10;;
53977;SDS011;39886;47.984;-1.586;2023-02-28T15:41:52;5.60;;;1.08;;
53977;SDS011;39886;47.984;-1.586;2023-02-28T15:44:34;2.05;;;1.10;;
53977;SDS011;39886;47.984;-1.586;2023-02-28T15:47:11;2.20;;;1.05;;
53977;SDS011;39886;47.984;-1.586;2023-02-28T15:49:47;2.03;;;1.00;;
53977;SDS011;39886;47.984;-1.586;2023-02-28T15:52:41;3.30;;;1.10;;
53977;SDS011;39886;47.984;-1.586;2023-02-28T15:55:18;2.08;;;1.10;;
53977;SDS011;39886;47.984;-1.586;2023-02-28T15:57:52;3.03;;;1.23;;
53977;SDS011;39886;47.984;-1.586;2023-02-28T16:00:24;2.20;;;1.10;;
53977;SDS011;39886;47.984;-1.586;2023-02-28T16:02:51;1.65;;;0.90;;
53977;SDS011;39886;47.984;-1.586;2023-02-28T16:05:19;3.85;;;1.13;;
53977;SDS011;39886;47.984;-1.586;2023-02-28T16:07:52;2.03;;;1.02;;
53977;SDS011;39886;47.984;-1.586;2023-02-28T16:10:20;1.88;;;1.15;;
53977;SDS011;39886;47.984;-1.586;2023-02-28T16:12:50;2.60;;;1.27;;
53977;SDS011;39886;47.984;-1.586;2023-02-28T16:15:19;2.88;;;1.00;;
53977;SDS011;39886;47.984;-1.586;2023-02-28T16:17:47;2.55;;;1.33;;
53977;SDS011;39886;47.984;-1.586;2023-02-28T16:22:44;2.78;;;1.25;;
53977;SDS011;39886;47.984;-1.586;2023-02-28T16:25:13;1.15;;;1.00;;
53977;SDS011;39886;47.984;-1.586;2023-02-28T16:27:41;3.13;;;1.25;;
53977;SDS011;39886;47.984;-1.586;2023-02-28T16:30:14;1.40;;;1.10;;
53977;SDS011;39886;47.984;-1.586;2023-02-28T16:32:46;4.03;;;1.13;;
53977;SDS011;39886;47.984;-1.586;2023-02-28T16:35:13;2.50;;;1.17;;
53977;SDS011;39886;47.984;-1.586;2023-02-28T16:37:39;4.47;;;1.25;;
53977;SDS011;39886;47.984;-1.586;2023-02-28T16:40:06;3.25;;;1.45;;
53977;SDS011;39886;47.984;-1.586;2023-02-28T16:42:38;3.93;;;1.30;;
53977;SDS011;39886;47.984;-1.586;2023-02-28T16:45:04;1.35;;;1.10;;
53977;SDS011;39886;47.984;-1.586;2023-02-28T16:47:30;3.08;;;1.15;;
53977;SDS011;39886;47.984;-1.586;2023-02-28T16:49:57;2.22;;;1.42;;
53977;SDS011;39886;47.984;-1.586;2023-02-28T16:52:23;2.85;;;1.10;;
53977;SDS011;39886;47.984;-1.586;2023-02-28T16:54:49;1.92;;;1.38;;
53977;SDS011;39886;47.984;-1.586;2023-02-28T16:57:21;3.78;;;1.10;;
53977;SDS011;39886;47.984;-1.586;2023-02-28T16:59:48;4.20;;;2.30;;
53977;SDS011;39886;47.984;-1.586;2023-02-28T17:02:18;4.35;;;2.50;;
53977;SDS011;39886;47.984;-1.586;2023-02-28T17:04:44;5.00;;;2.28;;
53977;SDS011;39886;47.984;-1.586;2023-02-28T17:07:11;4.97;;;2.13;;
53977;SDS011;39886;47.984;-1.586;2023-02-28T17:09:39;5.05;;;2.00;;
53977;SDS011;39886;47.984;-1.586;2023-02-28T17:12:05;5.07;;;1.98;;
53977;SDS011;39886;47.984;-1.586;2023-02-28T17:14:31;5.43;;;2.17;;
53977;SDS011;39886;47.984;-1.586;2023-02-28T17:16:57;4.68;;;2.22;;
53977;SDS011;39886;47.984;-1.586;2023-02-28T17:19:23;4.05;;;2.22;;
53977;SDS011;39886;47.984;-1.586;2023-02-28T17:21:48;4.65;;;2.17;;